Time;durP1;ratioP1;P1;durP2;ratioP2;P2;SDS_P1;SDS_P2;PMS_P1;PMS_P2;Temp;Humidity;BMP_temperature;BMP_pressure;BME280_temperature;BME280_humidity;BME280_pressure;Samples;Min_cycle;Max_cycle;Signal;HPM_P1;HPM_P2
2023/10/26 08:04:29;;;;;;;;;;;;;;;9.70;100.00;97663.59;4993996;28;20254;-79
2023/10/26 08:06:55;;;;;;;;;;;;;;;9.69;100.00;97651.34;4994786;28;19925;-83
2023/10/26 08:09:20;;;;;;;;;;;;;;;9.71;100.00;97660.00;4994552;28;20378;-82
2023/10/26 08:11:45;;;;;;;;;;;;;;;9.73;100.00;97695.09;4994622;28;20432;-80
2023/10/26 08:14:11;;;;;;;;;;;;;;;9.73;100.00;97701.25;4995257;28;19973;-81
2023/10/26 08:16:36;;;;;;;;;;;;;;;9.76;100.00;97705.44;4993301;28;20016;-80
2023/10/26 08:19:01;;;;;;;;;;;;;;;9.75;100.00;97695.84;4994496;28;19918;-81
2023/10/26 08:21:26;;;;;;;;;;;;;;;9.76;100.00;97701.00;4993951;28;20292;-81
2023/10/26 08:23:52;;;;;;;;;;;;;;;9.73;100.00;97703.03;4993131;28;19953;-81
2023/10/26 08:26:17;;;;;;;;;;;;;;;9.79;100.00;97695.50;4994281;28;19924;-81
2023/10/26 08:28:42;;;;;;;;;;;;;;;9.80;100.00;97694.53;4994359;28;20332;-81
2023/10/26 08:31:07;;;;;;;;;;;;;;;9.75;100.00;97699.31;4991499;28;19922;-81
2023/10/26 08:33:35;;;;;;;;;;;;;;;9.80;100.00;97701.66;4994319;28;19925;-81
2023/10/26 08:36:00;;;;;;;;;;;;;;;9.84;100.00;97696.97;4994278;28;20004;-81
2023/10/26 08:38:26;;;;;;;;;;;;;;;9.79;100.00;97710.53;4994015;28;20491;-81
2023/10/26 08:40:52;;;;;;;;;;;;;;;9.78;100.00;97707.03;4993016;28;19918;-81
2023/10/26 08:43:18;;;;;;;;;;;;;;;9.82;100.00;97705.84;4993234;28;20039;-81
2023/10/26 08:45:45;;;;;;;;;;;;;;;9.82;100.00;97712.94;4992124;28;20412;-81
2023/10/26 08:48:14;;;;;;;;;;;;;;;9.81;100.00;97711.25;4993426;28;19930;-81
2023/10/26 08:50:40;;;;;;;;;;;;;;;9.78;100.00;97706.19;4993822;28;19918;-81
2023/10/26 08:53:05;;;;;;;;;;;;;;;9.83;100.00;97704.06;4992516;28;20262;-81
2023/10/26 08:55:30;;;;;;;;;;;;;;;9.80;100.00;97696.34;4993520;28;20397;-81
2023/10/26 08:58:00;;;;;;;;;;;;;;;9.84;100.00;97700.44;4993676;28;19918;-81
2023/10/26 09:00:29;;;;;;;;;;;;;;;9.80;100.00;97706.94;4992361;28;19925;-81
2023/10/26 09:02:54;;;;;;;;;;;;;;;9.78;100.00;97703.53;5000573;28;19989;-81
2023/10/26 09:05:19;;;;;;;;;;;;;;;9.82;100.00;97708.50;5013359;28;19921;-81
2023/10/26 09:07:45;;;;;;;;;;;;;;;9.90;100.00;97691.22;5013233;28;20376;-81
2023/10/26 09:10:10;;;;;;;;;;;;;;;9.82;100.00;97681.22;5013065;28;19917;-81
2023/10/26 09:12:36;;;;;;;;;;;;;;;9.89;100.00;97693.03;5012977;28;19917;-81
2023/10/26 09:15:02;;;;;;;;;;;;;;;9.85;100.00;97693.38;5003381;28;19936;-81
2023/10/26 09:17:28;;;;;;;;;;;;;;;9.91;100.00;97703.50;5010699;28;19918;-81
2023/10/26 09:19:54;;;;;;;;;;;;;;;9.84;100.00;97702.25;5012979;28;19917;-81
2023/10/26 09:22:34;;;;;;;;;;;;;;;9.87;100.00;97708.16;5012842;28;19925;-81
2023/10/26 09:25:06;;;;;;;;;;;;;;;9.81;100.00;97703.31;5012197;28;19933;-81
2023/10/26 09:27:31;;;;;;;;;;;;;;;9.82;100.00;97694.44;5012176;28;19927;-81
2023/10/26 09:29:56;;;;;;;;;;;;;;;9.79;100.00;97684.91;5012719;28;19918;-82
2023/10/26 09:32:30;;;;;;;;;;;;;;;9.85;100.00;97677.50;5010960;28;19917;-81
2023/10/26 09:34:55;;;;;;;;;;;;;;;9.87;100.00;97665.84;5012454;28;20373;-81
2023/10/26 09:37:20;;;;;;;;;;;;;;;9.87;100.00;97670.28;5012668;28;19968;-81
2023/10/26 09:39:46;;;;;;;;;;;;;;;9.79;100.00;97666.41;5012489;28;19940;-81
2023/10/26 09:42:12;;;;;;;;;;;;;;;9.87;100.00;97663.19;5012430;28;19995;-80
2023/10/26 09:44:38;;;;;;;;;;;;;;;9.88;100.00;97667.53;5012562;28;19913;-81
2023/10/26 09:47:03;;;;;;;;;;;;;;;9.87;100.00;97665.00;5001489;28;20009;-81
2023/10/26 09:49:30;;;;;;;;;;;;;;;9.90;100.00;97670.06;5012483;28;20007;-81
2023/10/26 09:51:55;;;;;;;;;;;;;;;9.85;100.00;97670.41;5012613;28;19924;-81
2023/10/26 09:54:25;;;;;;;;;;;;;;;9.87;100.00;97675.59;5002782;28;19918;-81
2023/10/26 09:56:55;;;;;;;;;;;;;;;9.92;100.00;97673.44;5012418;28;19937;-81
2023/10/26 09:59:21;;;;;;;;;;;;;;;9.95;100.00;97689.09;5011313;28;19918;-81
2023/10/26 10:01:46;;;;;;;;;;;;;;;9.91;100.00;97677.88;5001372;28;19921;-83
2023/10/26 10:04:13;;;;;;;;;;;;;;;9.88;100.00;97680.75;5012284;28;19921;-81
2023/10/26 10:06:50;;;;;;;;;;;;;;;9.84;100.00;97681.94;5012209;28;19924;-81
2023/10/26 10:09:18;;;;;;;;;;;;;;;9.82;100.00;97697.06;5010655;28;19918;-81
2023/10/26 10:11:44;;;;;;;;;;;;;;;9.92;100.00;97706.00;5011796;28;20091;-81
2023/10/26 10:14:09;;;;;;;;;;;;;;;9.93;100.00;97701.59;5012060;28;20403;-82
2023/10/26 10:16:34;;;;;;;;;;;;;;;9.88;100.00;97682.56;5001044;28;19944;-81
2023/10/26 10:19:15;;;;;;;;;;;;;;;9.92;100.00;97682.22;5012281;28;19971;-82
2023/10/26 10:21:41;;;;;;;;;;;;;;;9.85;100.00;97670.41;5012093;28;19964;-82
2023/10/26 10:24:06;;;;;;;;;;;;;;;9.90;100.00;97668.25;5012343;28;19960;-82
2023/10/26 10:26:51;;;;;;;;;;;;;;;9.89;100.00;97677.16;5012075;28;19917;-81
2023/10/26 10:29:17;;;;;;;;;;;;;;;9.90;100.00;97662.97;5012153;28;19967;-81
2023/10/26 10:31:43;;;;;;;;;;;;;;;9.97;100.00;97672.16;5009989;28;20438;-80
2023/10/26 10:34:08;;;;;;;;;;;;;;;9.98;100.00;97670.34;5002211;28;19925;-81
2023/10/26 10:36:52;;;;;;;;;;;;;;;9.91;100.00;97664.66;5011999;28;20007;-81
2023/10/26 10:39:24;;;;;;;;;;;;;;;9.99;100.00;97669.41;5011935;28;20025;-81
2023/10/26 10:41:50;;;;;;;;;;;;;;;9.97;100.00;97656.28;5011709;28;19921;-81
2023/10/26 10:44:16;;;;;;;;;;;;;;;9.98;100.00;97647.38;5012594;28;20012;-82
2023/10/26 10:46:46;;;;;;;;;;;;;;;9.95;100.00;97644.13;5014161;28;20433;-82
2023/10/26 10:49:11;;;;;;;;;;;;;;;9.96;100.00;97637.88;5015522;28;19929;-82
2023/10/26 10:51:38;;;;;;;;;;;;;;;9.94;100.00;97640.63;5015740;28;19921;-81
2023/10/26 10:54:04;;;;;;;;;;;;;;;9.98;100.00;97643.88;5015378;28;19996;-81
2023/10/26 10:56:39;;;;;;;;;;;;;;;9.97;100.00;97640.41;5015517;28;19929;-81
2023/10/26 10:59:17;;;;;;;;;;;;;;;9.96;100.00;97644.00;5015432;28;19918;-81
2023/10/26 11:01:43;;;;;;;;;;;;;;;9.93;100.00;97628.34;5014063;28;19918;-81
2023/10/26 11:04:12;;;;;;;;;;;;;;;9.98;100.00;97631.50;5015549;28;19929;-81
2023/10/26 11:06:43;;;;;;;;;;;;;;;9.99;100.00;97627.06;5015333;28;19921;-85
2023/10/26 11:09:19;;;;;;;;;;;;;;;9.99;100.00;97624.41;5015451;28;20331;-82
2023/10/26 11:11:44;;;;;;;;;;;;;;;10.02;100.00;97615.38;5015080;28;20024;-82
2023/10/26 11:14:10;;;;;;;;;;;;;;;9.98;100.00;97606.84;5015203;28;20032;-82
2023/10/26 11:16:40;;;;;;;;;;;;;;;9.99;100.00;97596.16;5013828;28;20276;-83
2023/10/26 11:19:06;;;;;;;;;;;;;;;9.95;100.00;97589.38;5015032;28;19924;-80
2023/10/26 11:21:31;;;;;;;;;;;;;;;9.94;100.00;97587.72;5015005;28;20372;-83
2023/10/26 11:23:56;;;;;;;;;;;;;;;9.99;100.00;97584.75;5015158;28;20008;-82
2023/10/26 11:26:22;;;;;;;;;;;;;;;10.01;100.00;97585.47;5014828;28;19918;-81
2023/10/26 11:28:47;;;;;;;;;;;;;;;10.02;100.00;97583.63;5014135;28;20329;-82
2023/10/26 11:31:12;;;;;;;;;;;;;;;9.97;100.00;97581.34;5013658;28;19928;-81
2023/10/26 11:33:42;;;;;;;;;;;;;;;9.98;100.00;97572.47;5014016;28;20015;-82
2023/10/26 11:36:11;;;;;;;;;;;;;;;10.01;100.00;97574.88;5013789;28;20313;-83
2023/10/26 11:38:44;;;;;;;;;;;;;;;9.97;100.00;97568.97;5014623;28;19957;-84
2023/10/26 11:41:10;;;;;;;;;;;;;;;9.99;100.00;97569.69;5014094;28;20051;-84
2023/10/26 11:43:37;;;;;;;;;;;;;;;9.98;100.00;97567.16;5014742;28;20420;-83
2023/10/26 11:46:03;;;;;;;;;;;;;;;10.10;100.00;97562.72;5014010;28;19967;-83
2023/10/26 11:48:31;;;;;;;;;;;;;;;10.08;100.00;97567.31;5014618;28;19939;-84
2023/10/26 11:50:56;;;;;;;;;;;;;;;10.04;100.00;97565.88;5014676;28;19917;-81
2023/10/26 11:53:22;;;;;;;;;;;;;;;10.04;100.00;97560.56;5014387;28;20040;-81
2023/10/26 11:55:49;;;;;;;;;;;;;;;10.07;100.00;97565.59;5013667;28;20280;-85
2023/10/26 11:58:14;;;;;;;;;;;;;;;10.04;100.00;97565.88;5004601;28;20327;-83
2023/10/26 12:00:39;;;;;;;;;;;;;;;10.05;100.00;97560.47;5014518;28;19917;-83
2023/10/26 12:03:04;;;;;;;;;;;;;;;10.04;100.00;97560.56;5012511;28;20284;-82
2023/10/26 12:05:30;;;;;;;;;;;;;;;9.97;100.00;97558.41;5013276;28;20361;-82
2023/10/26 12:07:55;;;;;;;;;;;;;;;10.04;100.00;97563.22;5013040;28;19918;-79
2023/10/26 12:10:21;;;;;;;;;;;;;;;10.08;100.00;97564.66;5013205;28;19957;-81
2023/10/26 12:12:48;;;;;;;;;;;;;;;10.03;100.00;97566.81;5013054;28;19988;-84
2023/10/26 12:15:14;;;;;;;;;;;;;;;10.04;100.00;97564.06;5003422;28;19922;-84
2023/10/26 12:17:39;;;;;;;;;;;;;;;10.03;100.00;97558.88;5011665;28;19921;-83
2023/10/26 12:20:05;;;;;;;;;;;;;;;10.04;100.00;97565.88;5013181;28;19918;-84
2023/10/26 12:22:30;;;;;;;;;;;;;;;10.05;100.00;97551.66;5012840;28;20284;-83
2023/10/26 12:24:56;;;;;;;;;;;;;;;9.94;100.00;97550.69;5012948;28;20542;-82
2023/10/26 12:27:22;;;;;;;;;;;;;;;10.06;100.00;97542.78;5013121;28;19924;-84
2023/10/26 12:29:47;;;;;;;;;;;;;;;10.03;100.00;97545.66;5012753;28;19922;-82
2023/10/26 12:32:13;;;;;;;;;;;;;;;10.00;100.00;97539.66;5011556;28;19972;-82
2023/10/26 12:34:38;;;;;;;;;;;;;;;9.99;100.00;97537.13;5012827;28;19953;-82
2023/10/26 12:37:04;;;;;;;;;;;;;;;9.97;100.00;97539.88;5012813;28;20016;-83
2023/10/26 12:39:29;;;;;;;;;;;;;;;9.94;100.00;97540.09;5012466;28;19964;-84
2023/10/26 12:41:54;;;;;;;;;;;;;;;9.96;100.00;97532.06;5012707;28;20364;-82
2023/10/26 12:44:21;;;;;;;;;;;;;;;10.01;100.00;97535.19;5002883;28;20292;-81
2023/10/26 12:46:48;;;;;;;;;;;;;;;10.02;100.00;97533.38;5011362;28;19975;-81
2023/10/26 12:49:13;;;;;;;;;;;;;;;10.00;100.00;97538.78;5011929;28;19917;-81
2023/10/26 12:51:39;;;;;;;;;;;;;;;10.02;100.00;97546.59;5012381;28;19921;-82
2023/10/26 12:54:04;;;;;;;;;;;;;;;10.06;100.00;97553.34;5012552;28;20250;-83
2023/10/26 12:56:29;;;;;;;;;;;;;;;10.05;100.00;97549.00;5012428;28;19917;-82
2023/10/26 12:58:55;;;;;;;;;;;;;;;10.02;100.00;97549.25;5012386;28;19928;-81
2023/10/26 13:01:20;;;;;;;;;;;;;;;9.97;100.00;97545.16;5011123;28;19939;-83
2023/10/26 13:04:34;;;;;;;;;;;;;;;10.00;100.00;97544.94;5100121;27;19962;-83
2023/10/26 13:06:59;;;;;;;;;;;;;;;9.98;100.00;97538.06;5099862;28;19924;-81
2023/10/26 13:09:25;;;;;;;;;;;;;;;9.95;100.00;97533.84;5099443;28;20007;-83
2023/10/26 13:11:50;;;;;;;;;;;;;;;9.97;100.00;97534.59;5099409;28;19945;-82
2023/10/26 13:14:15;;;;;;;;;;;;;;;10.00;100.00;97529.06;5098656;28;19965;-82
2023/10/26 13:16:40;;;;;;;;;;;;;;;10.00;100.00;97537.00;5098130;28;19920;-84
2023/10/26 13:19:06;;;;;;;;;;;;;;;10.05;100.00;97535.78;5099043;28;19920;-86
2023/10/26 13:21:31;;;;;;;;;;;;;;;10.01;100.00;97535.19;5097945;28;19939;-83
2023/10/26 13:23:56;;;;;;;;;;;;;;;10.00;100.00;97539.66;5099573;28;19916;-81
2023/10/26 13:26:21;;;;;;;;;;;;;;;10.00;100.00;97537.00;5099191;28;19916;-83
2023/10/26 13:28:47;;;;;;;;;;;;;;;10.02;100.00;97538.66;5097895;28;19920;-81
2023/10/26 13:31:12;;;;;;;;;;;;;;;9.99;100.00;97543.25;5097731;28;20182;-81
2023/10/26 13:33:37;;;;;;;;;;;;;;;10.06;100.00;97543.59;5099429;28;20388;-81
2023/10/26 13:36:02;;;;;;;;;;;;;;;10.00;100.00;97547.59;5099043;28;19923;-81
2023/10/26 13:38:28;;;;;;;;;;;;;;;10.04;100.00;97557.94;5099271;28;19942;-82
2023/10/26 13:40:53;;;;;;;;;;;;;;;10.05;100.00;97551.66;5098914;28;19995;-86
2023/10/26 13:43:19;;;;;;;;;;;;;;;10.05;100.00;97551.66;5098123;28;19920;-81
2023/10/26 13:45:44;;;;;;;;;;;;;;;10.05;100.00;97551.66;5098809;28;19916;-82
2023/10/26 13:48:09;;;;;;;;;;;;;;;10.08;100.00;97556.72;5097291;28;20018;-82
2023/10/26 13:50:39;;;;;;;;;;;;;;;10.12;100.00;97566.97;5098885;28;19916;-81
2023/10/26 13:53:04;;;;;;;;;;;;;;;10.10;100.00;97568.88;5098802;28;19920;-81
2023/10/26 13:55:32;;;;;;;;;;;;;;;10.09;100.00;97564.53;5098514;28;20285;-84
2023/10/26 13:57:57;;;;;;;;;;;;;;;10.15;100.00;97563.25;5097087;28;19943;-85
2023/10/26 14:00:23;;;;;;;;;;;;;;;10.12;100.00;97560.84;5098746;28;20385;-81
2023/10/26 14:02:49;;;;;;;;;;;;;;;10.13;100.00;97566.00;5095827;28;20040;-81
2023/10/26 14:05:14;;;;;;;;;;;;;;;10.14;100.00;97556.25;5097275;28;19974;-81
2023/10/26 14:07:39;;;;;;;;;;;;;;;10.12;100.00;97561.66;5098905;28;19923;-81
2023/10/26 14:10:06;;;;;;;;;;;;;;;10.08;100.00;97556.72;5098680;28;20288;-82
2023/10/26 14:12:31;;;;;;;;;;;;;;;10.05;100.00;97562.25;5096951;28;19968;-82
2023/10/26 14:14:59;;;;;;;;;;;;;;;10.06;100.00;97566.59;5090451;28;20332;-82
2023/10/26 14:17:24;;;;;;;;;;;;;;;10.08;100.00;97562.00;5083739;28;19916;-85
2023/10/26 14:19:50;;;;;;;;;;;;;;;10.07;100.00;97562.97;5082216;28;19917;-84
2023/10/26 14:22:15;;;;;;;;;;;;;;;10.09;100.00;97547.84;5084692;28;20413;-84
2023/10/26 14:24:42;;;;;;;;;;;;;;;10.10;100.00;97549.50;5084957;28;19939;-84
2023/10/26 14:27:07;;;;;;;;;;;;;;;10.12;100.00;97548.44;5083105;28;19924;-83
2023/10/26 14:29:33;;;;;;;;;;;;;;;10.08;100.00;97551.44;5084341;28;20425;-82
2023/10/26 14:31:58;;;;;;;;;;;;;;;10.12;100.00;97553.72;5082845;28;19920;-83
2023/10/26 14:34:23;;;;;;;;;;;;;;;10.14;100.00;97567.69;5083384;28;20340;-83
2023/10/26 14:36:48;;;;;;;;;;;;;;;10.13;100.00;97559.84;5084365;28;19916;-83
2023/10/26 14:39:14;;;;;;;;;;;;;;;10.16;100.00;97564.91;5084292;28;19920;-81
2023/10/26 14:41:40;;;;;;;;;;;;;;;10.13;100.00;97558.06;5084314;28;19916;-81
2023/10/26 14:44:06;;;;;;;;;;;;;;;10.14;100.00;97558.91;5083988;28;19970;-81
2023/10/26 14:46:34;;;;;;;;;;;;;;;10.10;100.00;97565.38;5083213;28;19947;-82
2023/10/26 14:49:02;;;;;;;;;;;;;;;10.13;100.00;97578.38;5082864;28;19916;-82
2023/10/26 14:51:28;;;;;;;;;;;;;;;10.12;100.00;97566.97;5084266;28;19916;-80
2023/10/26 14:53:54;;;;;;;;;;;;;;;10.22;100.00;97553.03;5084545;28;19912;-82
2023/10/26 14:56:19;;;;;;;;;;;;;;;10.20;100.00;97555.78;5082524;28;19956;-82
2023/10/26 14:58:44;;;;;;;;;;;;;;;10.21;100.00;97557.50;5083795;28;19924;-82
2023/10/26 15:01:11;;;;;;;;;;;;;;;10.18;100.00;97563.84;5081761;28;20193;-82
2023/10/26 15:03:36;;;;;;;;;;;;;;;10.20;100.00;97552.31;5082536;28;19928;-81
2023/10/26 15:06:01;;;;;;;;;;;;;;;10.26;100.00;97554.47;5083652;28;19973;-82
2023/10/26 15:08:27;;;;;;;;;;;;;;;10.21;100.00;97559.28;5083616;28;19916;-82
2023/10/26 15:10:53;;;;;;;;;;;;;;;10.25;100.00;97553.63;5084683;28;19920;-82
2023/10/26 15:13:18;;;;;;;;;;;;;;;10.24;100.00;97544.00;5086183;28;19916;-85
2023/10/26 15:15:44;;;;;;;;;;;;;;;10.23;100.00;97546.75;5083390;28;19923;-84
2023/10/26 15:18:09;;;;;;;;;;;;;;;10.21;100.00;97551.34;5080713;28;19926;-84
2023/10/26 15:20:34;;;;;;;;;;;;;;;10.17;100.00;97551.56;5084308;28;19922;-84
2023/10/26 15:23:00;;;;;;;;;;;;;;;10.18;100.00;97552.44;5079685;28;19927;-82
2023/10/26 15:25:25;;;;;;;;;;;;;;;10.17;100.00;97556.03;5079200;28;20009;-82
2023/10/26 15:27:50;;;;;;;;;;;;;;;10.18;100.00;97557.72;5080561;28;19920;-83
2023/10/26 15:30:15;;;;;;;;;;;;;;;10.14;100.00;97550.97;5083184;28;20923;-86
2023/10/26 15:32:41;;;;;;;;;;;;;;;10.07;100.00;97557.66;5078867;28;19925;-85
2023/10/26 15:35:06;;;;;;;;;;;;;;;10.14;100.00;97559.75;5080958;28;20726;-82
2023/10/26 15:37:32;;;;;;;;;;;;;;;10.19;100.00;97548.81;5083310;28;19943;-83
2023/10/26 15:39:57;;;;;;;;;;;;;;;10.17;100.00;97550.72;5079559;28;19924;-82
2023/10/26 15:42:23;;;;;;;;;;;;;;;10.17;100.00;97542.78;5078545;28;19986;-82
2023/10/26 15:44:51;;;;;;;;;;;;;;;10.20;100.00;97537.28;5082968;28;20006;-83
2023/10/26 15:47:18;;;;;;;;;;;;;;;10.16;100.00;97541.09;5081133;28;20397;-83
2023/10/26 15:49:44;;;;;;;;;;;;;;;10.14;100.00;97541.22;5081983;28;19921;-82
2023/10/26 15:52:09;;;;;;;;;;;;;;;10.17;100.00;97542.78;5079956;28;19986;-83
2023/10/26 15:54:35;;;;;;;;;;;;;;;10.17;100.00;97542.78;5082002;28;19928;-83
2023/10/26 15:57:00;;;;;;;;;;;;;;;10.19;100.00;97554.09;5080928;28;20402;-83
2023/10/26 15:59:25;;;;;;;;;;;;;;;10.21;100.00;97561.91;5081250;28;19969;-84
2023/10/26 16:01:50;;;;;;;;;;;;;;;10.14;100.00;97556.25;5079313;28;19981;-83
2023/10/26 16:04:16;;;;;;;;;;;;;;;10.15;100.00;97560.59;5082615;28;19921;-83
2023/10/26 16:06:42;;;;;;;;;;;;;;;10.20;100.00;97558.44;5082572;28;19916;-83
2023/10/26 16:09:07;;;;;;;;;;;;;;;10.15;100.00;97556.13;5081798;28;19923;-82
2023/10/26 16:11:33;;;;;;;;;;;;;;;10.12;100.00;97563.47;5082977;28;19921;-81
2023/10/26 16:13:58;;;;;;;;;;;;;;;10.19;100.00;97554.09;5078290;28;19920;-83
2023/10/26 16:16:23;;;;;;;;;;;;;;;10.16;100.00;97559.63;5076988;28;19967;-85
2023/10/26 16:18:48;;;;;;;;;;;;;;;10.12;100.00;97552.91;5081661;28;19916;-83
2023/10/26 16:21:14;;;;;;;;;;;;;;;10.19;100.00;97554.09;5081181;28;19920;-85
2023/10/26 16:23:40;;;;;;;;;;;;;;;10.17;100.00;97558.66;5081747;28;19959;-84
2023/10/26 16:26:06;;;;;;;;;;;;;;;10.17;100.00;97561.31;5081347;28;20369;-85
2023/10/26 16:28:31;;;;;;;;;;;;;;;10.16;100.00;97565.78;5081166;28;20844;-87
2023/10/26 16:30:58;;;;;;;;;;;;;;;10.16;100.00;97564.91;5072614;28;19920;-85
2023/10/26 16:33:24;;;;;;;;;;;;;;;10.17;100.00;97569.25;5082949;28;19973;-85
2023/10/26 16:35:49;;;;;;;;;;;;;;;10.15;100.00;97573.84;5081920;28;19916;-84
2023/10/26 16:38:14;;;;;;;;;;;;;;;10.10;100.00;97578.59;5080069;28;19921;-87
2023/10/26 16:40:40;;;;;;;;;;;;;;;10.09;100.00;97582.22;5081109;28;20011;-84
2023/10/26 16:43:05;;;;;;;;;;;;;;;10.13;100.00;97581.03;5081773;28;19923;-82
2023/10/26 16:45:30;;;;;;;;;;;;;;;10.14;100.00;97588.00;5078783;28;19927;-82
2023/10/26 16:47:55;;;;;;;;;;;;;;;10.11;100.00;97593.53;5078280;28;19966;-83
2023/10/26 16:50:22;;;;;;;;;;;;;;;10.14;100.00;97588.84;5078570;28;19942;-82
2023/10/26 16:52:47;;;;;;;;;;;;;;;10.12;100.00;97590.78;5080751;28;20260;-83
2023/10/26 16:55:12;;;;;;;;;;;;;;;10.09;100.00;97592.81;5080927;28;19973;-83
2023/10/26 16:57:38;;;;;;;;;;;;;;;10.11;100.00;97588.25;5081722;28;19916;-84
2023/10/26 17:00:03;;;;;;;;;;;;;;;10.12;100.00;97577.53;5076833;28;19970;-85
2023/10/26 17:02:29;;;;;;;;;;;;;;;10.10;100.00;97575.97;5077323;28;19960;-84
2023/10/26 17:04:55;;;;;;;;;;;;;;;10.03;100.00;97580.88;5077624;28;19928;-84
2023/10/26 17:07:21;;;;;;;;;;;;;;;10.10;100.00;97582.13;5078879;28;19935;-84
2023/10/26 17:09:49;;;;;;;;;;;;;;;10.17;100.00;97585.13;5079403;28;19920;-83
2023/10/26 17:12:14;;;;;;;;;;;;;;;10.16;100.00;97594.03;5081018;28;20374;-83
2023/10/26 17:14:40;;;;;;;;;;;;;;;10.11;100.00;97594.38;5078322;28;19920;-84
2023/10/26 17:17:05;;;;;;;;;;;;;;;10.16;100.00;97601.97;5078961;28;19935;-83
2023/10/26 17:19:30;;;;;;;;;;;;;;;10.16;100.00;97600.19;5080971;28;19962;-88
2023/10/26 17:21:55;;;;;;;;;;;;;;;10.17;100.00;97608.94;5077087;28;19929;-82
2023/10/26 17:24:21;;;;;;;;;;;;;;;10.20;100.00;97607.88;5081671;28;19960;-83
2023/10/26 17:26:46;;;;;;;;;;;;;;;10.16;100.00;97601.97;5080356;28;20007;-85
2023/10/26 17:29:11;;;;;;;;;;;;;;;10.18;100.00;97594.78;5078611;28;19920;-82
2023/10/26 17:31:37;;;;;;;;;;;;;;;10.17;100.00;97593.91;5078874;28;20509;-83
2023/10/26 17:34:02;;;;;;;;;;;;;;;10.18;100.00;97592.13;5080348;28;19916;-85
2023/10/26 17:36:27;;;;;;;;;;;;;;;10.14;100.00;97588.84;5075375;28;19960;-87
2023/10/26 17:38:52;;;;;;;;;;;;;;;10.14;100.00;97588.00;5078384;28;20022;-84
2023/10/26 17:41:18;;;;;;;;;;;;;;;10.09;100.00;97585.72;5080992;28;19943;-82
2023/10/26 17:43:43;;;;;;;;;;;;;;;10.10;100.00;97591.84;5078982;28;19926;-87
2023/10/26 17:46:08;;;;;;;;;;;;;;;10.12;100.00;97580.19;5079031;28;19920;-86
2023/10/26 17:48:34;;;;;;;;;;;;;;;10.12;100.00;97584.66;5079859;28;20366;-84
2023/10/26 17:51:01;;;;;;;;;;;;;;;10.14;100.00;97593.31;5099429;28;20355;-84
2023/10/26 17:53:26;;;;;;;;;;;;;;;10.11;100.00;97589.06;5084454;28;19970;-86
2023/10/26 17:55:58;;;;;;;;;;;;;;;10.15;100.00;97590.53;5085857;28;19916;-90
2023/10/26 17:58:23;;;;;;;;;;;;;;;10.07;100.00;97581.47;5081294;28;19960;-83
2023/10/26 18:00:49;;;;;;;;;;;;;;;10.09;100.00;97584.88;5081209;28;19974;-84
2023/10/26 18:03:17;;;;;;;;;;;;;;;10.12;100.00;97589.94;5077954;28;19959;-89
2023/10/26 18:05:43;;;;;;;;;;;;;;;10.12;100.00;97580.19;5080526;28;19920;-89
2023/10/26 18:08:08;;;;;;;;;;;;;;;10.22;100.00;97580.31;5084299;28;20364;-83
2023/10/26 18:10:34;;;;;;;;;;;;;;;10.08;100.00;97577.88;5082705;28;19920;-86
2023/10/26 18:12:59;;;;;;;;;;;;;;;10.15;100.00;97576.47;5085278;28;19920;-84
2023/10/26 18:15:25;;;;;;;;;;;;;;;10.19;100.00;97569.97;5084942;28;19923;-83
2023/10/26 18:17:50;;;;;;;;;;;;;;;10.16;100.00;97564.91;5078080;28;19931;-84
2023/10/26 18:20:15;;;;;;;;;;;;;;;10.12;100.00;97568.78;5084217;28;20019;-86
2023/10/26 18:22:40;;;;;;;;;;;;;;;10.14;100.00;97558.91;5084785;28;19924;-85
2023/10/26 18:25:06;;;;;;;;;;;;;;;10.13;100.00;97570.44;5082421;28;20033;-82
2023/10/26 18:27:31;;;;;;;;;;;;;;;10.11;100.00;97567.06;5083874;28;20367;-83
2023/10/26 18:29:58;;;;;;;;;;;;;;;10.10;100.00;97565.38;5083283;28;19935;-85
2023/10/26 18:32:23;;;;;;;;;;;;;;;10.07;100.00;97568.25;5081573;28;19935;-86
2023/10/26 18:34:48;;;;;;;;;;;;;;;10.14;100.00;97575.63;5079206;28;19920;-85
2023/10/26 18:37:13;;;;;;;;;;;;;;;10.06;100.00;97571.88;5084426;28;19916;-86
2023/10/26 18:39:39;;;;;;;;;;;;;;;10.10;100.00;97573.31;5084424;28;20367;-85
2023/10/26 18:42:05;;;;;;;;;;;;;;;10.16;100.00;97573.72;5082126;28;19931;-84
2023/10/26 18:44:31;;;;;;;;;;;;;;;10.17;100.00;97578.03;5080753;28;19920;-85
2023/10/26 18:46:57;;;;;;;;;;;;;;;10.15;100.00;97569.38;5078908;28;19978;-85
2023/10/26 18:49:22;;;;;;;;;;;;;;;10.12;100.00;97568.78;5076816;28;19924;-85
2023/10/26 18:51:48;;;;;;;;;;;;;;;10.15;100.00;97569.38;5084156;28;19916;-86
2023/10/26 18:54:13;;;;;;;;;;;;;;;10.21;100.00;97569.84;5081022;28;20367;-84
2023/10/26 18:56:38;;;;;;;;;;;;;;;10.12;100.00;97568.78;5082166;28;20382;-84
2023/10/26 18:59:04;;;;;;;;;;;;;;;10.15;100.00;97564.09;5082186;28;20375;-83
2023/10/26 19:01:29;;;;;;;;;;;;;;;10.17;100.00;97561.31;5081350;28;20279;-86
2023/10/26 19:03:54;;;;;;;;;;;;;;;10.13;100.00;97565.16;5083486;28;19996;-82
2023/10/26 19:06:19;;;;;;;;;;;;;;;10.19;100.00;97569.97;5081820;28;20379;-84
2023/10/26 19:08:45;;;;;;;;;;;;;;;10.15;100.00;97568.53;5080191;28;19924;-85
2023/10/26 19:11:10;;;;;;;;;;;;;;;10.18;100.00;97571.78;5083998;28;20363;-82
2023/10/26 19:13:35;;;;;;;;;;;;;;;10.16;100.00;97564.91;5082915;28;20915;-84
2023/10/26 19:16:02;;;;;;;;;;;;;;;10.16;100.00;97564.91;5079475;28;19927;-84
2023/10/26 19:18:27;;;;;;;;;;;;;;;10.09;100.00;97564.53;5076580;28;19921;-84
2023/10/26 19:20:52;;;;;;;;;;;;;;;10.18;100.00;97561.19;5083842;28;19923;-87
2023/10/26 19:23:18;;;;;;;;;;;;;;;10.11;100.00;97569.72;5082721;28;20394;-82
2023/10/26 19:25:44;;;;;;;;;;;;;;;10.15;100.00;97568.53;5083335;28;19959;-82
2023/10/26 19:28:09;;;;;;;;;;;;;;;10.18;100.00;97563.84;5082392;28;19947;-81
2023/10/26 19:30:34;;;;;;;;;;;;;;;10.09;100.00;97569.84;5083520;28;19927;-81
2023/10/26 19:33:00;;;;;;;;;;;;;;;10.16;100.00;97562.28;5078730;28;20378;-81
2023/10/26 19:35:26;;;;;;;;;;;;;;;10.10;100.00;97560.09;5083279;28;19920;-83
2023/10/26 19:37:51;;;;;;;;;;;;;;;10.11;100.00;97562.63;5079594;28;19926;-83
2023/10/26 19:40:17;;;;;;;;;;;;;;;10.13;100.00;97565.16;5080836;28;19982;-82
2023/10/26 19:42:42;;;;;;;;;;;;;;;10.12;100.00;97558.19;5083174;28;19916;-82
2023/10/26 19:45:08;;;;;;;;;;;;;;;10.13;100.00;97559.84;5081948;28;19916;-83
2023/10/26 19:47:34;;;;;;;;;;;;;;;10.16;100.00;97562.28;5078976;28;20406;-85
2023/10/26 19:49:59;;;;;;;;;;;;;;;10.10;100.00;97557.44;5083001;28;19920;-85
2023/10/26 19:52:24;;;;;;;;;;;;;;;10.16;100.00;97557.84;5078479;28;20007;-83
2023/10/26 19:54:50;;;;;;;;;;;;;;;10.10;100.00;97560.94;5081592;28;19927;-83
2023/10/26 19:57:18;;;;;;;;;;;;;;;10.12;100.00;97556.38;5077677;28;19931;-81
2023/10/26 19:59:43;;;;;;;;;;;;;;;10.16;100.00;97559.63;5078965;28;19920;-83
2023/10/26 20:02:09;;;;;;;;;;;;;;;10.15;100.00;97552.66;5081625;28;20003;-82
2023/10/26 20:04:34;;;;;;;;;;;;;;;10.15;100.00;97555.31;5082466;28;20066;-84
2023/10/26 20:06:59;;;;;;;;;;;;;;;10.14;100.00;97550.97;5078738;28;19920;-82
2023/10/26 20:09:25;;;;;;;;;;;;;;;10.14;100.00;97543.03;5078590;28;19920;-84
2023/10/26 20:11:50;;;;;;;;;;;;;;;10.14;100.00;97546.50;5080235;28;19925;-83
2023/10/26 20:14:18;;;;;;;;;;;;;;;10.17;100.00;97546.28;5077529;28;19935;-83
2023/10/26 20:16:43;;;;;;;;;;;;;;;10.13;100.00;97543.97;5079411;28;19924;-86
2023/10/26 20:19:09;;;;;;;;;;;;;;;10.17;100.00;97542.78;5079125;28;19928;-84
2023/10/26 20:21:37;;;;;;;;;;;;;;;10.15;100.00;97540.25;5075575;28;20466;-83
2023/10/26 20:24:03;;;;;;;;;;;;;;;10.16;100.00;97530.50;5078552;28;20363;-83
2023/10/26 20:26:31;;;;;;;;;;;;;;;10.13;100.00;97536.03;5076968;28;19931;-81
2023/10/26 20:28:56;;;;;;;;;;;;;;;10.20;100.00;97533.78;5078851;28;20395;-85
2023/10/26 20:31:22;;;;;;;;;;;;;;;10.26;100.00;97522.69;5078447;28;19926;-83
2023/10/26 20:33:48;;;;;;;;;;;;;;;10.22;100.00;97519.47;5076883;28;20035;-84
2023/10/26 20:36:14;;;;;;;;;;;;;;;10.25;100.00;97519.22;5080493;28;19913;-85
2023/10/26 20:38:39;;;;;;;;;;;;;;;10.24;100.00;97516.69;5078572;28;19993;-84